TimeNDT,TemperatureF,Dew PointF,Humidity,Sea Level PressureIn,VisibilityMPH,Wind Direction,Wind SpeedMPH,Gust SpeedMPH,PrecipitationIn,Events,Conditions,WindDirDegrees,DateUTC
12:30 AM,39.0,33.6,81,-9999,-9999.0,NE,3.5,-,N/A,,Unknown,40,2013-03-27 03:00:00
1:30 AM,39.4,31.6,74,-9999,-9999.0,NNW,4.6,-,N/A,,Unknown,340,2013-03-27 04:00:00
2:30 AM,38.1,32.0,79,-9999,-9999.0,NW,2.3,-,N/A,,Unknown,310,2013-03-27 05:00:00
3:30 AM,36,31,76,,,WNW,4.6,,,,,300,2013-03-27 06:00:00
3:30 AM,36.3,31.3,82,-9999,-9999.0,WNW,4.6,-,N/A,,Unknown,300,2013-03-27 06:00:00
4:30 AM,34.3,31.6,90,-9999,-9999.0,NNW,4.6,-,N/A,,Unknown,330,2013-03-27 07:00:00
5:30 AM,33.6,31.1,90,-9999,-9999.0,NW,3.5,-,N/A,,Unknown,310,2013-03-27 08:00:00
6:30 AM,33.1,31.1,92,-9999,-9999.0,North,3.5,-,N/A,,Unknown,350,2013-03-27 09:00:00
7:30 AM,33.8,31.8,92,-9999,-9999.0,WNW,4.6,-,N/A,,Unknown,290,2013-03-27 10:00:00
8:30 AM,35.4,31.3,85,-9999,-9999.0,NNW,6.9,-,N/A,,Unknown,330,2013-03-27 11:00:00
9:30 AM,40,33,69,,,NW,4.6,,,,,310,2013-03-27 12:00:00
9:30 AM,39.7,33.3,78,-9999,-9999.0,NW,4.6,-,N/A,,Unknown,310,2013-03-27 12:00:00
10:30 AM,37.6,33.1,84,-9999,-9999.0,WNW,5.8,-,N/A,,Unknown,290,2013-03-27 13:00:00
11:30 AM,42.8,29.8,60,-9999,-9999.0,NNE,8.1,20.7,N/A,,Unknown,20,2013-03-27 14:00:00
12:30 PM,43.0,29.5,59,-9999,-9999.0,North,5.8,18.4,N/A,,Unknown,360,2013-03-27 15:00:00
1:30 PM,38.7,33.3,81,-9999,-9999.0,NNW,5.8,-,N/A,,Unknown,330,2013-03-27 16:00:00
2:30 PM,37.8,33.8,86,-9999,-9999.0,NW,5.8,-,N/A,,Unknown,320,2013-03-27 17:00:00
3:30 PM,40,34,71,,,North,8.1,,,,,350,2013-03-27 18:00:00
3:30 PM,39.7,33.8,79,-9999,-9999.0,North,8.1,18.4,N/A,,Unknown,350,2013-03-27 18:00:00
4:30 PM,42.6,34.5,73,-9999,-9999.0,NNW,6.9,17.3,N/A,,Unknown,340,2013-03-27 19:00:00
5:30 PM,37.2,33.4,86,-9999,-9999.0,North,8.1,20.7,N/A,,Unknown,360,2013-03-27 20:00:00
6:30 PM,36.7,31.8,83,-9999,-9999.0,North,10.4,-,N/A,,Unknown,350,2013-03-27 21:00:00
7:30 PM,36.1,31.5,83,-9999,-9999.0,North,6.9,-,N/A,,Unknown,350,2013-03-27 22:00:00
8:30 PM,36.7,30.9,80,-9999,-9999.0,North,6.9,-,N/A,,Unknown,360,2013-03-27 23:00:00
9:30 PM,36,30,73,,,North,8.1,,,,,350,2013-03-28 00:00:00
9:30 PM,36.3,30.4,79,-9999,-9999.0,North,8.1,-,N/A,,Unknown,350,2013-03-28 00:00:00
10:30 PM,36.0,29.1,76,-9999,-9999.0,North,4.6,-,N/A,,Unknown,360,2013-03-28 01:00:00
11:30 PM,35.2,29.7,80,-9999,-9999.0,North,4.6,-,N/A,,Unknown,350,2013-03-28 02:00:00